DIY weather

Diyarbakir Airport
Diyarbakir, Diyarbakir Province, Turkey

Public forecast

Using degrees Celsius for public forecast. Weather courtesy of forecast.io.

METAR (pilot weather report)

Retrieved 2019/07/22 09:20 UTC (0 seconds ago):

LTCC 220920Z 10006KT 020V170 CAVOK 38/12 Q1004 NOSIG

TAF (pilot weather forecast)

Retrieved 2019/07/22 06:03 UTC (3 hours ago):

TAF LTCC 220440Z 2206/2306 VRB02KT CAVOK BECMG 2210/2212 FEW040 TEMPO 2211/2213 23012KT BECMG 2216/2218 CAVOK